Overview Statistics Trail Chart Weather Telemetry Raw packets
 

This is the latest recevied weather packets stored in our database for station/object VE1DX. If no packets are shown the sender has not sent any weather packets the latest 10 day(s).

<< 49 50 51 52 53 54 55 >>
Time Temp. Humidity Pressure Rain* Wind** Luminosity Snow
1788296416 20.56° C 81% 1018.1 hPa 0 mm - - -
1788296116 21.11° C 80% 1018 hPa 0 mm - - -
1788295816 21.11° C 79% 1017.9 hPa 0 mm - - -
1788295516 21.67° C 78% 1018 hPa 0 mm - - -
1788295216 22.22° C 77% 1018.1 hPa 0 mm - - -
1788294916 22.22° C 75% 1018.1 hPa 0 mm - - -
1788294631 22.78° C 75% 1018.1 hPa 0 mm - - -
1788294316 22.22° C 76% 1018 hPa 0 mm - - -
1788294016 21.67° C 76% 1018 hPa 0 mm - - -
1788293716 21.67° C 75% 1018 hPa 0 mm - - -
1788293416 21.67° C 74% 1018 hPa 0 mm - - -
1788293116 22.22° C 74% 1018 hPa 0 mm - - -
1788292816 22.78° C 71% 1017.9 hPa 0 mm - - -
1788292516 23.33° C 70% 1018 hPa 0 mm - - -
1788292216 23.89° C 69% 1018 hPa 0 mm - - -
1788291916 23.89° C 68% 1017.9 hPa 0 mm - - -
1788291616 23.89° C 69% 1017.9 hPa 0 mm - - -
1788291316 23.33° C 71% 1017.8 hPa 0 mm - - -
1788291016 23.33° C 72% 1017.8 hPa 0 mm - - -
1788290716 22.78° C 76% 1017.8 hPa 0 mm - - -
1788290416 22.22° C 76% 1017.8 hPa 0 mm - - -
1788290116 22.22° C 76% 1017.9 hPa 0 mm - - -
1788289816 22.22° C 76% 1017.9 hPa 0 mm - - -
1788289516 22.22° C 77% 1017.8 hPa 0 mm - - -
1788289216 21.67° C 76% 1017.8 hPa 0 mm - - -

* Rain latest hour (hover to see other rain measurements)
** Current wind speed in m/s (hover to see current wind gust speed)